Terminal Aerodrome Forecast
Issued by NWS

Home | Current Version | Previous Version | Graphics & Text | Print | Product List | Glossary On
Versions: 1 2 3 4 5 6 7 8 9 10 11 12 13 14 15
000
FTUS43 KMPX 262320
TAFRWF
TAF
KRWF 262320Z 2700/2724 33012G18KT P6SM BKN025
     FM270100 30008KT P6SM SKC
     FM271400 25008KT P6SM SKC
     FM272100 22007KT P6SM SKC=

USA.gov is the U.S. government's official web portal to all federal, state and local government web resources and services.